Aeroporto :
LOGIN :

Iscrizione | Disclaimer

   EN    FR    IT 

 










Sommario :    VFR   VFR Marginale   IFR   IFR Intensivo   IFR Molto Intensivo
Visibilità : 
Base nubi : 
>= 8 km
>= 3000ft
5 / 8 km
1000 / 3000 ft
1500m / 5 km
500 / 1000 ft
800 / 1500m
200 / 500 ft
< 800m
< 200 ft
Simboli :   Temporali  Nebbia  Neve Forte  Precipitazioni Forti  Vento > 20 kt
SIGMETs :   Varie  Temporali  Ghiacco  Turbolenza  Onda orograficha  Ceneri Vulcaniche






- Altitudine del aeroporto : 1 ft


EGCK - Caernarfon

ULTIMO METAR :
  • 151820Z AUTO 18013KT 9999 NCD 06/03 Q0990

METARs OBSOLETI :
  • 151750Z AUTO 20014KT 9999 FEW048/// 06/03 Q0990
  • 151720Z AUTO 21020G31KT 9999 NCD 07/03 Q0990
  • 151650Z 21016G26KT 9999 FEW046 06/03 Q0990
  • 151620Z 21016G29KT 9999 BKN022 BKN035 07/03 Q0990
  • 151550Z 21016G26KT 9999 FEW023 BKN038 06/03 Q0990

TAF TAF EGCK
Valido dal 15 a 18 ore il 16 a 03 ore UTC


151706Z 1518/1603 18009KT 9999 SCT030
TEMPO 1518/1521 24018G28KT 6000 SHRA BKN010
BECMG 1521/1524 18015G25KT
PROB30
TEMPO 1521/1603 21025G35KT



MetMap, La meteo Aeronautica in un colpo d'occhio ! - Copyright ORBIFLY Dicembre 2007 - Disclaimer

ORBIFLY MET'MAP TEAM :

Programmazione e sviluppo : Alexandra Zaïnal
Concezione : Baudouin d'Aumeries
Aiuto per la programmazione : Marc-Olivier Méhu
Supporto tecnico e logistico : Manuel Goepfert
Aiuto per la traduzione : Arnaldo La Scala

Contatto : metmap@orbifly.com




FONTI E CREDITI :

   NOAA